Terminal Aerodrome Forecast
Issued by NWS Shreveport, LA

Home | Current Version | Previous Version | Text Only | Print | Product List | Glossary On
Versions: 1 2 3 4 5 6 7 8 9 10 11
000
FTUS44 KSHV 131700 RRA
TAFTYR
TAF
KTYR 131746Z 1318/1418 25005KT P6SM SCT050
     FM140000 18004KT P6SM SCT250
     FM141500 23008KT P6SM SCT120=

USA.gov is the U.S. government's official web portal to all federal, state and local government web resources and services.